Time;durP1;ratioP1;P1;durP2;ratioP2;P2;SDS_P1;SDS_P2;PMS_P1;PMS_P2;Temp;Humidity;BMP_temperature;BMP_pressure;BME280_temperature;BME280_humidity;BME280_pressure;Samples;Min_cycle;Max_cycle;Signal;HPM_P1;HPM_P2
2021/08/27 00:02:25;;;;;;;6.97;4.00;;;;;;;;;;5055765;28;20021;-84
2021/08/27 00:04:51;;;;;;;8.32;4.25;;;;;;;;;;5056299;28;20021;-84
2021/08/27 00:07:16;;;;;;;7.50;4.27;;;;;;;;;;5059350;28;20324;-83
2021/08/27 00:09:41;;;;;;;5.87;3.60;;;;;;;;;;5058207;28;20411;-84
2021/08/27 00:12:07;;;;;;;8.07;3.97;;;;;;;;;;5058571;28;20036;-84
2021/08/27 00:14:32;;;;;;;7.73;4.33;;;;;;;;;;5056645;28;20025;-86
2021/08/27 00:16:58;;;;;;;8.33;4.20;;;;;;;;;;5055782;28;20048;-85
2021/08/27 00:19:23;;;;;;;6.53;4.23;;;;;;;;;;5056358;28;20091;-85
2021/08/27 00:21:49;;;;;;;5.90;4.10;;;;;;;;;;5056746;28;20385;-85
2021/08/27 00:24:14;;;;;;;6.57;4.17;;;;;;;;;;5056519;28;20439;-85
2021/08/27 00:26:40;;;;;;;6.53;3.97;;;;;;;;;;5056119;28;20096;-85
2021/08/27 00:29:05;;;;;;;7.33;4.20;;;;;;;;;;5055434;28;20447;-85
2021/08/27 00:31:31;;;;;;;8.47;4.43;;;;;;;;;;5056717;28;20461;-84
2021/08/27 00:33:57;;;;;;;7.83;4.27;;;;;;;;;;5055564;28;20029;-84
2021/08/27 00:36:22;;;;;;;8.20;4.25;;;;;;;;;;5055476;28;20435;-84
2021/08/27 00:38:48;;;;;;;6.77;4.40;;;;;;;;;;5055642;28;20075;-84
2021/08/27 00:41:14;;;;;;;10.27;4.10;;;;;;;;;;5056438;28;20417;-84
2021/08/27 00:43:40;;;;;;;6.03;4.07;;;;;;;;;;5056081;28;20045;-84
2021/08/27 00:46:05;;;;;;;8.40;3.80;;;;;;;;;;5055186;28;20272;-85
2021/08/27 00:48:31;;;;;;;6.53;4.00;;;;;;;;;;5056133;28;20056;-84
2021/08/27 00:50:56;;;;;;;5.50;3.50;;;;;;;;;;5058156;28;20029;-84
2021/08/27 00:53:22;;;;;;;6.53;3.87;;;;;;;;;;5059448;28;20118;-83
2021/08/27 00:55:47;;;;;;;6.50;3.93;;;;;;;;;;5059040;28;20043;-85
2021/08/27 00:58:14;;;;;;;6.80;4.63;;;;;;;;;;5059568;28;20029;-85
2021/08/27 01:00:39;;;;;;;7.15;3.80;;;;;;;;;;5059292;28;20036;-84
2021/08/27 01:03:05;;;;;;;6.63;3.73;;;;;;;;;;5059265;28;20037;-84
2021/08/27 01:05:32;;;;;;;8.63;4.53;;;;;;;;;;5059011;28;20086;-85
2021/08/27 01:08:36;;;;;;;8.38;4.25;;;;;;;;;;5058041;28;20152;-84
2021/08/27 01:11:16;;;;;;;5.82;3.78;;;;;;;;;;5041460;28;20029;-83
2021/08/27 01:13:48;;;;;;;9.18;4.22;;;;;;;;;;5058703;28;20116;-84
2021/08/27 01:16:22;;;;;;;6.97;3.67;;;;;;;;;;5058942;28;20111;-84
2021/08/27 01:18:53;;;;;;;6.28;3.85;;;;;;;;;;5058636;28;20028;-84
2021/08/27 01:21:36;;;;;;;6.85;4.00;;;;;;;;;;5057924;28;20048;-85
2021/08/27 01:24:08;;;;;;;5.93;4.28;;;;;;;;;;5058724;28;20029;-84
2021/08/27 01:26:37;;;;;;;7.78;4.28;;;;;;;;;;5058501;28;20112;-85
2021/08/27 01:29:04;;;;;;;6.47;4.10;;;;;;;;;;5058596;28;20064;-85
2021/08/27 01:31:39;;;;;;;7.25;4.07;;;;;;;;;;5058108;28;20032;-85
2021/08/27 01:34:04;;;;;;;7.72;4.25;;;;;;;;;;5058202;28;20089;-84
2021/08/27 01:36:33;;;;;;;7.73;4.63;;;;;;;;;;5061010;28;20025;-83
2021/08/27 01:39:01;;;;;;;7.40;4.63;;;;;;;;;;5074052;28;20020;-84
2021/08/27 01:41:27;;;;;;;5.78;3.75;;;;;;;;;;5073943;28;20029;-84
2021/08/27 01:43:54;;;;;;;7.15;4.38;;;;;;;;;;5068872;28;20041;-84
2021/08/27 01:46:20;;;;;;;8.65;4.25;;;;;;;;;;5057862;28;20446;-84
2021/08/27 01:48:46;;;;;;;6.93;3.83;;;;;;;;;;5059152;28;20040;-84
2021/08/27 01:51:13;;;;;;;8.47;4.57;;;;;;;;;;5058425;28;20393;-84
2021/08/27 01:53:41;;;;;;;10.07;5.00;;;;;;;;;;5058474;28;20087;-84
2021/08/27 01:56:07;;;;;;;8.40;4.32;;;;;;;;;;5058265;28;20454;-84
2021/08/27 01:58:33;;;;;;;6.85;4.65;;;;;;;;;;5058107;28;20358;-84
2021/08/27 02:00:59;;;;;;;9.53;4.83;;;;;;;;;;5057004;28;20036;-84
2021/08/27 02:03:27;;;;;;;6.38;3.92;;;;;;;;;;5057923;28;20024;-85
2021/08/27 02:05:55;;;;;;;6.40;4.15;;;;;;;;;;5058054;28;20033;-83
2021/08/27 02:08:21;;;;;;;6.93;4.43;;;;;;;;;;5057985;28;20470;-84
2021/08/27 02:10:47;;;;;;;10.15;4.53;;;;;;;;;;5057721;28;20025;-84
2021/08/27 02:13:13;;;;;;;8.30;4.55;;;;;;;;;;5057710;28;20066;-85
2021/08/27 02:15:39;;;;;;;6.57;4.03;;;;;;;;;;5057356;28;20021;-85
2021/08/27 02:18:05;;;;;;;7.60;4.00;;;;;;;;;;5057482;28;20362;-85
2021/08/27 02:20:31;;;;;;;6.83;3.90;;;;;;;;;;5056382;28;20021;-85
2021/08/27 02:22:59;;;;;;;8.52;4.40;;;;;;;;;;5057175;28;20017;-85
2021/08/27 02:25:29;;;;;;;7.47;4.00;;;;;;;;;;5057217;28;20040;-85
2021/08/27 02:27:56;;;;;;;8.68;3.88;;;;;;;;;;5057313;28;20035;-85
2021/08/27 02:30:22;;;;;;;8.57;4.20;;;;;;;;;;5057206;28;20025;-85
2021/08/27 02:32:49;;;;;;;8.07;4.00;;;;;;;;;;5057242;28;20031;-86
2021/08/27 02:35:15;;;;;;;10.32;3.88;;;;;;;;;;5056968;28;20537;-85
2021/08/27 02:37:42;;;;;;;6.45;3.75;;;;;;;;;;5056916;28;20028;-85
2021/08/27 02:40:08;;;;;;;6.40;3.90;;;;;;;;;;5056944;28;20071;-85
2021/08/27 02:42:34;;;;;;;8.40;4.57;;;;;;;;;;5056857;28;20057;-85
2021/08/27 02:45:01;;;;;;;6.73;3.70;;;;;;;;;;5055946;28;20331;-85
2021/08/27 02:47:26;;;;;;;5.32;4.07;;;;;;;;;;5057100;28;20033;-84
2021/08/27 02:49:52;;;;;;;8.77;4.20;;;;;;;;;;5056587;28;20041;-84
2021/08/27 02:52:51;;;;;;;7.20;3.90;;;;;;;;;;5055714;28;20052;-84
2021/08/27 02:55:16;;;;;;;7.35;3.65;;;;;;;;;;5056942;28;20024;-84
2021/08/27 02:57:55;;;;;;;8.37;4.03;;;;;;;;;;5056036;28;20024;-84
2021/08/27 03:00:20;;;;;;;6.22;3.70;;;;;;;;;;5056112;28;20029;-84
2021/08/27 03:02:47;;;;;;;6.77;4.10;;;;;;;;;;5055926;28;20036;-83
2021/08/27 03:05:18;;;;;;;6.85;3.88;;;;;;;;;;5056600;28;20025;-84
2021/08/27 03:07:46;;;;;;;8.38;4.05;;;;;;;;;;5062870;28;20035;-84
2021/08/27 03:10:18;;;;;;;7.00;4.18;;;;;;;;;;5064287;28;20546;-85
2021/08/27 03:13:06;;;;;;;6.03;3.80;;;;;;;;;;5074880;28;20016;-83
2021/08/27 03:15:36;;;;;;;8.52;4.05;;;;;;;;;;5078118;28;20025;-83
2021/08/27 03:18:20;;;;;;;6.80;4.15;;;;;;;;;;5075720;28;20037;-84
2021/08/27 03:20:53;;;;;;;12.50;4.32;;;;;;;;;;5056860;28;20429;-83
2021/08/27 03:23:20;;;;;;;5.95;3.95;;;;;;;;;;5056960;28;20029;-83
2021/08/27 03:25:47;;;;;;;6.55;3.88;;;;;;;;;;5056976;28;20037;-84
2021/08/27 03:28:18;;;;;;;6.93;4.18;;;;;;;;;;5056214;28;20043;-84
2021/08/27 03:30:48;;;;;;;5.90;3.95;;;;;;;;;;5058861;28;20107;-85
2021/08/27 03:33:14;;;;;;;6.63;4.00;;;;;;;;;;5056022;28;20020;-84
2021/08/27 03:35:40;;;;;;;10.27;4.90;;;;;;;;;;5056956;28;20048;-84
2021/08/27 03:38:09;;;;;;;6.07;4.00;;;;;;;;;;5055975;28;20032;-84
2021/08/27 03:40:35;;;;;;;8.75;4.25;;;;;;;;;;5056354;28;20025;-83
2021/08/27 03:43:01;;;;;;;9.75;4.15;;;;;;;;;;5056233;28;20044;-84
2021/08/27 03:45:29;;;;;;;9.67;4.50;;;;;;;;;;5056580;28;20509;-84
2021/08/27 03:47:55;;;;;;;5.60;3.72;;;;;;;;;;5056504;28;20112;-86
2021/08/27 03:50:22;;;;;;;7.20;4.30;;;;;;;;;;5056372;28;20036;-86
2021/08/27 03:52:50;;;;;;;7.53;4.28;;;;;;;;;;5056423;28;20013;-83
2021/08/27 03:55:17;;;;;;;5.88;3.63;;;;;;;;;;5056913;28;20435;-83
2021/08/27 03:57:44;;;;;;;;;;;;;;;;;;5056941;28;20467;-83
2021/08/27 04:00:10;;;;;;;6.13;3.58;;;;;;;;;;5056905;28;19912;-83
2021/08/27 04:02:36;;;;;;;8.23;4.15;;;;;;;;;;5056498;28;20029;-83
2021/08/27 04:05:13;;;;;;;8.83;3.53;;;;;;;;;;5056229;28;20466;-84
2021/08/27 04:07:39;;;;;;;;;;;;;;;;;;5055882;28;20125;-83
2021/08/27 04:10:05;;;;;;;6.30;3.72;;;;;;;;;;5055106;28;19908;-84
2021/08/27 04:12:31;;;;;;;11.07;3.53;;;;;;;;;;5056228;28;20128;-83
2021/08/27 04:14:56;;;;;;;8.18;3.80;;;;;;;;;;5055038;28;20307;-84
2021/08/27 04:17:21;;;;;;;5.82;3.80;;;;;;;;;;5055601;28;20032;-84
2021/08/27 04:19:47;;;;;;;8.50;4.07;;;;;;;;;;5055426;28;20058;-85
2021/08/27 04:22:12;;;;;;;9.70;4.00;;;;;;;;;;5054712;28;20108;-84
2021/08/27 04:24:37;;;;;;;7.07;4.40;;;;;;;;;;5054288;28;20061;-83
2021/08/27 04:27:03;;;;;;;8.33;4.00;;;;;;;;;;5059845;28;20075;-84
2021/08/27 04:29:28;;;;;;;8.33;3.87;;;;;;;;;;5060334;28;20358;-84
2021/08/27 04:31:56;;;;;;;9.25;3.97;;;;;;;;;;5060338;28;20036;-85
2021/08/27 04:34:21;;;;;;;9.43;4.13;;;;;;;;;;5059887;28;20021;-85
2021/08/27 04:36:47;;;;;;;7.87;4.00;;;;;;;;;;5059520;28;20087;-84
2021/08/27 04:39:12;;;;;;;7.97;3.83;;;;;;;;;;5060535;28;20100;-84
2021/08/27 04:41:37;;;;;;;7.68;4.32;;;;;;;;;;5060319;28;20090;-85
2021/08/27 04:44:03;;;;;;;13.07;4.20;;;;;;;;;;5059484;28;20052;-84
2021/08/27 04:46:29;;;;;;;9.63;3.93;;;;;;;;;;5067857;28;20040;-84
2021/08/27 04:48:54;;;;;;;6.63;4.10;;;;;;;;;;5070772;28;20025;-84
2021/08/27 04:51:19;;;;;;;5.63;3.80;;;;;;;;;;5075170;28;20025;-84
2021/08/27 04:53:45;;;;;;;8.97;4.07;;;;;;;;;;5074031;28;20024;-83
2021/08/27 04:56:10;;;;;;;7.33;4.33;;;;;;;;;;5078651;28;20060;-83
2021/08/27 04:58:35;;;;;;;8.63;4.63;;;;;;;;;;5077644;28;20036;-83
2021/08/27 05:01:01;;;;;;;8.45;3.92;;;;;;;;;;5071347;28;20017;-84
2021/08/27 05:03:26;;;;;;;8.63;4.40;;;;;;;;;;5064242;28;20028;-83
2021/08/27 05:05:52;;;;;;;6.90;5.23;;;;;;;;;;5062489;28;20044;-84
2021/08/27 05:08:17;;;;;;;7.50;4.63;;;;;;;;;;5060582;28;20044;-84
2021/08/27 05:10:42;;;;;;;8.43;4.43;;;;;;;;;;5060419;28;20083;-85
2021/08/27 05:13:08;;;;;;;7.87;4.20;;;;;;;;;;5060855;28;20082;-84
2021/08/27 05:15:33;;;;;;;7.57;3.67;;;;;;;;;;5060285;28;20025;-85
2021/08/27 05:17:59;;;;;;;9.93;4.25;;;;;;;;;;5060628;28;20040;-85
2021/08/27 05:20:24;;;;;;;9.13;4.10;;;;;;;;;;5058693;28;20021;-85
2021/08/27 05:22:50;;;;;;;7.27;4.20;;;;;;;;;;5060221;28;20021;-85
2021/08/27 05:25:15;;;;;;;7.07;4.00;;;;;;;;;;5059316;28;20036;-85
2021/08/27 05:27:40;;;;;;;10.48;4.47;;;;;;;;;;5060545;28;20039;-85
2021/08/27 05:30:08;;;;;;;7.73;4.40;;;;;;;;;;5058943;28;20128;-84
2021/08/27 05:32:33;;;;;;;6.65;3.67;;;;;;;;;;5059460;28;20032;-85
2021/08/27 05:34:59;;;;;;;7.47;4.63;;;;;;;;;;5059796;28;20040;-84
2021/08/27 05:37:24;;;;;;;8.70;4.80;;;;;;;;;;5059391;28;20025;-84
2021/08/27 05:39:51;;;;;;;8.57;4.00;;;;;;;;;;5059915;28;20099;-84
2021/08/27 05:42:16;;;;;;;10.55;4.57;;;;;;;;;;5059280;28;20037;-85
2021/08/27 05:44:41;;;;;;;8.27;3.80;;;;;;;;;;5058991;28;20029;-84
2021/08/27 05:47:07;;;;;;;10.43;4.30;;;;;;;;;;5059451;28;20036;-84
2021/08/27 05:49:33;;;;;;;9.90;4.33;;;;;;;;;;5058123;28;20040;-84
2021/08/27 05:51:59;;;;;;;7.75;4.55;;;;;;;;;;5058424;28;20035;-84
2021/08/27 05:54:24;;;;;;;8.40;5.07;;;;;;;;;;5058291;28;20402;-84
2021/08/27 05:56:50;;;;;;;9.90;4.73;;;;;;;;;;5058880;28;20473;-84
2021/08/27 05:59:15;;;;;;;9.80;3.83;;;;;;;;;;5060804;28;20072;-83
2021/08/27 06:01:41;;;;;;;6.50;3.23;;;;;;;;;;5058263;28;20043;-83
2021/08/27 06:04:06;;;;;;;6.47;3.33;;;;;;;;;;5058850;28;20113;-84
2021/08/27 06:06:32;;;;;;;6.63;3.63;;;;;;;;;;5057780;28;20408;-84
2021/08/27 06:08:58;;;;;;;8.45;3.83;;;;;;;;;;5064960;28;20032;-84
2021/08/27 06:11:23;;;;;;;8.87;4.43;;;;;;;;;;5071873;28;20037;-84
2021/08/27 06:13:48;;;;;;;8.40;3.80;;;;;;;;;;5072561;28;20029;-82
2021/08/27 06:16:14;;;;;;;8.00;4.03;;;;;;;;;;5065276;28;20450;-85
2021/08/27 06:18:39;;;;;;;7.07;3.97;;;;;;;;;;5058329;28;20033;-84
2021/08/27 06:21:04;;;;;;;9.53;3.93;;;;;;;;;;5060316;28;20029;-83
2021/08/27 06:23:30;;;;;;;7.43;4.13;;;;;;;;;;5060506;28;20147;-84
2021/08/27 06:25:55;;;;;;;7.03;4.10;;;;;;;;;;5063607;28;20081;-83
2021/08/27 06:28:21;;;;;;;7.70;3.93;;;;;;;;;;5061136;28;20036;-84
2021/08/27 06:30:47;;;;;;;10.97;3.80;;;;;;;;;;5061714;28;20083;-84
2021/08/27 06:33:12;;;;;;;5.53;3.53;;;;;;;;;;5059690;28;20053;-84
2021/08/27 06:35:38;;;;;;;6.30;3.53;;;;;;;;;;5059037;28;20496;-84
2021/08/27 06:38:21;;;;;;;7.03;3.63;;;;;;;;;;5059965;28;20052;-83
2021/08/27 06:40:48;;;;;;;7.55;4.07;;;;;;;;;;5058909;28;20390;-84
2021/08/27 06:43:13;;;;;;;8.48;4.30;;;;;;;;;;5059528;28;20056;-84
2021/08/27 06:45:39;;;;;;;9.97;4.20;;;;;;;;;;5058132;28;20033;-85
2021/08/27 06:48:05;;;;;;;8.47;4.40;;;;;;;;;;5058608;28;20056;-82
2021/08/27 06:50:30;;;;;;;8.70;3.88;;;;;;;;;;5058950;28;20021;-86
2021/08/27 06:52:57;;;;;;;9.63;3.80;;;;;;;;;;5063338;28;20032;-85
2021/08/27 06:55:22;;;;;;;7.32;4.22;;;;;;;;;;5060572;28;20079;-84
2021/08/27 06:57:48;;;;;;;5.90;3.20;;;;;;;;;;5058713;28;20090;-84
2021/08/27 07:00:15;;;;;;;8.50;4.00;;;;;;;;;;5058448;28;20036;-83
2021/08/27 07:02:40;;;;;;;;;;;;;;;;;;5058324;28;20028;-85
2021/08/27 07:05:06;;;;;;;7.30;3.50;;;;;;;;;;5059096;28;20391;-83
2021/08/27 07:07:32;;;;;;;5.75;3.63;;;;;;;;;;5066807;28;20336;-84
2021/08/27 07:09:57;;;;;;;7.50;4.07;;;;;;;;;;5072675;28;20065;-83
2021/08/27 07:12:22;;;;;;;6.30;4.10;;;;;;;;;;5072108;28;20040;-81
2021/08/27 07:14:50;;;;;;;7.70;4.17;;;;;;;;;;5070221;28;20025;-81
2021/08/27 07:17:18;;;;;;;6.80;3.75;;;;;;;;;;5071593;28;20032;-82
2021/08/27 07:19:43;;;;;;;7.43;3.67;;;;;;;;;;5069371;28;20029;-81
2021/08/27 07:22:09;;;;;;;7.03;4.03;;;;;;;;;;5067884;28;20039;-80
2021/08/27 07:24:34;;;;;;;6.47;4.30;;;;;;;;;;5065089;28;20033;-79
2021/08/27 07:26:59;;;;;;;9.30;4.93;;;;;;;;;;5066715;28;20025;-79
2021/08/27 07:29:25;;;;;;;8.80;3.73;;;;;;;;;;5069481;28;20017;-78
2021/08/27 07:31:50;;;;;;;6.37;3.63;;;;;;;;;;5069932;28;20476;-80
2021/08/27 07:34:16;;;;;;;8.10;4.20;;;;;;;;;;5065412;28;20039;-80
2021/08/27 07:36:41;;;;;;;6.67;3.87;;;;;;;;;;5067479;28;20531;-80
2021/08/27 07:39:11;;;;;;;8.37;3.90;;;;;;;;;;5068968;28;20076;-78
2021/08/27 07:41:36;;;;;;;8.05;3.92;;;;;;;;;;5066814;28;20028;-81
2021/08/27 07:44:05;;;;;;;6.60;3.97;;;;;;;;;;5067790;28;20052;-79
2021/08/27 07:46:30;;;;;;;6.70;3.17;;;;;;;;;;5069637;28;20028;-78
2021/08/27 07:48:56;;;;;;;7.70;3.83;;;;;;;;;;5073631;28;20021;-79
2021/08/27 07:51:21;;;;;;;5.97;3.33;;;;;;;;;;5072646;28;20040;-77
2021/08/27 07:53:47;;;;;;;6.13;3.50;;;;;;;;;;5072885;28;20017;-81
2021/08/27 07:56:12;;;;;;;7.60;4.63;;;;;;;;;;5071759;28;20028;-79
2021/08/27 07:58:41;;;;;;;5.70;3.38;;;;;;;;;;5072861;28;20025;-79
2021/08/27 08:01:07;;;;;;;8.38;6.30;;;;;;;;;;5071981;28;20031;-81
2021/08/27 08:03:33;;;;;;;7.15;4.03;;;;;;;;;;5073053;28;20463;-80
2021/08/27 08:05:58;;;;;;;6.67;3.30;;;;;;;;;;5073722;28;20067;-80
2021/08/27 08:08:24;;;;;;;7.72;3.63;;;;;;;;;;5069539;28;20112;-82
2021/08/27 08:10:49;;;;;;;7.95;3.60;;;;;;;;;;5071493;28;20043;-82
2021/08/27 08:13:15;;;;;;;6.07;3.38;;;;;;;;;;5073587;28;20032;-82
2021/08/27 08:15:40;;;;;;;6.30;3.38;;;;;;;;;;5069800;28;20029;-82
2021/08/27 08:18:05;;;;;;;6.05;3.30;;;;;;;;;;5067289;28;20033;-81
2021/08/27 08:20:31;;;;;;;;;;;;;;;;;;5069745;28;20025;-79
2021/08/27 08:22:57;;;;;;;5.60;3.05;;;;;;;;;;5071077;28;20358;-80
2021/08/27 08:25:23;;;;;;;8.10;3.50;;;;;;;;;;5067006;28;20032;-82
2021/08/27 08:27:49;;;;;;;4.70;2.75;;;;;;;;;;5066379;28;20096;-82
2021/08/27 08:30:14;;;;;;;;;;;;;;;;;;5063324;28;20138;-84
2021/08/27 08:32:47;;;;;;;6.80;3.27;;;;;;;;;;5068107;28;19912;-82
2021/08/27 08:35:12;;;;;;;7.80;3.70;;;;;;;;;;5067790;28;20264;-82
2021/08/27 08:37:41;;;;;;;6.30;3.05;;;;;;;;;;5067970;28;20029;-81
2021/08/27 08:40:09;;;;;;;4.90;3.28;;;;;;;;;;5070356;28;20086;-79
2021/08/27 08:42:36;;;;;;;6.80;3.30;;;;;;;;;;5072314;28;20044;-78
2021/08/27 08:45:03;;;;;;;5.47;3.30;;;;;;;;;;5074395;28;20033;-78
2021/08/27 08:47:32;;;;;;;6.35;3.15;;;;;;;;;;5076112;28;20029;-80
2021/08/27 08:49:59;;;;;;;5.63;2.90;;;;;;;;;;5059453;28;20031;-82
2021/08/27 08:52:26;;;;;;;6.32;2.95;;;;;;;;;;5076567;28;20013;-79
2021/08/27 08:54:51;;;;;;;6.18;2.88;;;;;;;;;;5077041;28;20017;-80
2021/08/27 08:57:20;;;;;;;6.57;3.00;;;;;;;;;;5076661;28;20005;-79
2021/08/27 08:59:45;;;;;;;7.65;3.45;;;;;;;;;;5076403;28;20020;-82
2021/08/27 09:02:11;;;;;;;5.78;2.75;;;;;;;;;;5073082;28;20025;-78
2021/08/27 09:04:37;;;;;;;8.90;3.53;;;;;;;;;;5074369;28;20025;-78
2021/08/27 09:07:02;;;;;;;9.20;3.15;;;;;;;;;;5075485;28;20029;-78
2021/08/27 09:09:34;;;;;;;;;;;;;;;;;;5075599;28;20033;-77
2021/08/27 09:12:14;;;;;;;7.38;3.38;;;;;;;;;;5073932;28;19912;-77
2021/08/27 09:14:40;;;;;;;9.38;3.25;;;;;;;;;;5073320;28;20033;-78
2021/08/27 09:17:06;;;;;;;;;;;;;;;;;;5074476;28;20040;-78
2021/08/27 09:19:53;;;;;;;7.15;3.40;;;;;;;;;;5074447;28;19937;-80
2021/08/27 09:22:19;;;;;;;8.00;3.10;;;;;;;;;;5074527;28;20021;-78
2021/08/27 09:25:02;;;;;;;9.13;3.65;;;;;;;;;;5074330;28;20043;-78
2021/08/27 09:27:27;;;;;;;9.43;3.80;;;;;;;;;;5074534;28;20049;-79
2021/08/27 09:29:52;;;;;;;9.40;3.83;;;;;;;;;;5074866;28;20036;-78
2021/08/27 09:32:19;;;;;;;13.30;5.27;;;;;;;;;;5072185;28;20013;-80
2021/08/27 09:34:45;;;;;;;13.77;6.40;;;;;;;;;;5071103;28;20047;-79
2021/08/27 09:37:10;;;;;;;8.35;5.57;;;;;;;;;;5072141;28;20029;-80
2021/08/27 09:39:36;;;;;;;12.97;5.80;;;;;;;;;;5069616;28;20033;-78
2021/08/27 09:42:02;;;;;;;12.63;6.80;;;;;;;;;;5066607;28;20432;-79
2021/08/27 09:44:28;;;;;;;8.70;4.85;;;;;;;;;;5063867;28;20446;-79
2021/08/27 09:46:54;;;;;;;11.50;5.30;;;;;;;;;;5060125;28;20032;-80
2021/08/27 09:49:37;;;;;;;13.13;4.47;;;;;;;;;;5059748;28;20477;-79
2021/08/27 09:52:07;;;;;;;8.55;3.50;;;;;;;;;;5060012;28;20260;-82
2021/08/27 09:54:46;;;;;;;5.55;2.78;;;;;;;;;;5059625;28;20028;-81
2021/08/27 09:57:12;;;;;;;5.85;2.90;;;;;;;;;;5058501;28;20032;-80
2021/08/27 09:59:47;;;;;;;;;;;;;;;;;;5059699;28;20127;-79
2021/08/27 10:02:14;;;;;;;6.53;3.10;;;;;;;;;;5061341;28;19920;-79
2021/08/27 10:05:02;;;;;;;6.07;3.17;;;;;;;;;;5061228;28;20474;-80
2021/08/27 10:07:27;;;;;;;6.03;2.97;;;;;;;;;;5060654;28;20029;-80
2021/08/27 10:09:53;;;;;;;4.43;2.73;;;;;;;;;;5059403;28;20064;-79
2021/08/27 10:12:19;;;;;;;5.45;3.42;;;;;;;;;;5059178;28;20335;-79
2021/08/27 10:14:44;;;;;;;9.98;5.72;;;;;;;;;;5057744;28;20088;-84
2021/08/27 10:17:11;;;;;;;5.97;3.30;;;;;;;;;;5059232;28;20029;-82
2021/08/27 10:19:36;;;;;;;6.63;3.00;;;;;;;;;;5059734;28;20050;-79
2021/08/27 10:22:03;;;;;;;5.40;3.00;;;;;;;;;;5058662;28;20029;-80
2021/08/27 10:24:28;;;;;;;5.82;3.10;;;;;;;;;;5057563;28;20036;-79
2021/08/27 10:26:53;;;;;;;;;;;;;;;;;;5059007;28;20025;-81
2021/08/27 10:29:19;;;;;;;4.88;3.03;;;;;;;;;;5058093;28;19912;-86
2021/08/27 10:31:50;;;;;;;5.28;3.20;;;;;;;;;;5059154;28;20043;-80
2021/08/27 10:34:16;;;;;;;5.68;2.90;;;;;;;;;;5058979;28;20021;-81
2021/08/27 10:36:46;;;;;;;7.50;3.05;;;;;;;;;;5058059;28;20020;-79
2021/08/27 10:39:31;;;;;;;5.25;2.75;;;;;;;;;;5059147;28;20102;-80
2021/08/27 10:41:57;;;;;;;6.32;2.92;;;;;;;;;;5059548;28;20039;-79
2021/08/27 10:44:49;;;;;;;5.43;2.65;;;;;;;;;;5059559;28;20029;-80
2021/08/27 10:47:15;;;;;;;5.22;3.03;;;;;;;;;;5058367;28;20042;-81
2021/08/27 10:49:46;;;;;;;6.05;3.10;;;;;;;;;;5060400;28;20025;-82
2021/08/27 10:52:23;;;;;;;5.35;3.00;;;;;;;;;;5058992;28;20025;-80
2021/08/27 10:55:04;;;;;;;7.10;2.80;;;;;;;;;;5060045;28;20017;-86
2021/08/27 10:57:42;;;;;;;6.25;3.03;;;;;;;;;;5058002;28;20032;-82
2021/08/27 11:00:08;;;;;;;6.47;2.65;;;;;;;;;;5057922;28;20439;-82
2021/08/27 11:02:51;;;;;;;5.32;2.95;;;;;;;;;;5057780;28;20037;-79
2021/08/27 11:05:34;;;;;;;5.32;2.85;;;;;;;;;;5058360;28;20114;-79
2021/08/27 11:08:01;;;;;;;7.47;2.88;;;;;;;;;;5061885;28;20486;-80
2021/08/27 11:10:27;;;;;;;6.68;3.03;;;;;;;;;;5056288;28;20032;-79
2021/08/27 11:13:07;;;;;;;7.32;3.45;;;;;;;;;;5056194;28;20365;-81
2021/08/27 11:15:32;;;;;;;6.25;3.47;;;;;;;;;;5057562;28;20541;-81
2021/08/27 11:18:16;;;;;;;5.63;2.80;;;;;;;;;;5057297;28;20044;-82
2021/08/27 11:20:43;;;;;;;5.82;2.10;;;;;;;;;;5057163;28;20056;-82
2021/08/27 11:23:09;;;;;;;5.45;2.90;;;;;;;;;;5057013;28;20359;-82
2021/08/27 11:25:38;;;;;;;4.93;2.53;;;;;;;;;;5057359;28;20108;-84
2021/08/27 11:28:18;;;;;;;6.50;2.80;;;;;;;;;;5057005;28;20029;-82
2021/08/27 11:30:45;;;;;;;4.93;2.60;;;;;;;;;;5058023;28;20064;-86
2021/08/27 11:33:38;;;;;;;4.22;1.85;;;;;;;;;;5057277;28;20037;-84
2021/08/27 11:36:05;;;;;;;4.60;2.80;;;;;;;;;;5056721;28;20032;-83
2021/08/27 11:38:31;;;;;;;7.20;2.50;;;;;;;;;;5056680;28;20032;-82
2021/08/27 11:40:57;;;;;;;5.25;2.42;;;;;;;;;;5056982;28;20021;-83
2021/08/27 11:43:42;;;;;;;7.28;2.40;;;;;;;;;;5056815;28;20135;-86
2021/08/27 11:46:24;;;;;;;6.55;2.63;;;;;;;;;;5058215;28;20136;-82
2021/08/27 11:48:59;;;;;;;4.10;1.92;;;;;;;;;;5057043;28;20518;-83
2021/08/27 11:51:30;;;;;;;5.30;2.15;;;;;;;;;;5058108;28;20504;-81
2021/08/27 11:53:55;;;;;;;3.90;1.85;;;;;;;;;;5056818;28;20021;-83
2021/08/27 11:56:25;;;;;;;5.18;1.92;;;;;;;;;;5058243;28;20033;-83
2021/08/27 11:58:51;;;;;;;5.00;2.08;;;;;;;;;;5056929;28;20049;-83
2021/08/27 12:01:27;;;;;;;7.47;1.90;;;;;;;;;;5057458;28;20458;-83
2021/08/27 12:03:53;;;;;;;2.92;1.50;;;;;;;;;;5056224;28;20465;-81
2021/08/27 12:06:20;;;;;;;3.10;1.40;;;;;;;;;;5056676;28;20028;-82
2021/08/27 12:08:47;;;;;;;4.10;1.70;;;;;;;;;;5059619;28;20025;-80
2021/08/27 12:11:12;;;;;;;3.35;2.08;;;;;;;;;;5056156;28;20083;-85
2021/08/27 12:13:52;;;;;;;4.38;1.67;;;;;;;;;;5058974;28;20447;-83
2021/08/27 12:16:19;;;;;;;4.13;1.60;;;;;;;;;;5062116;28;20075;-83
2021/08/27 12:18:48;;;;;;;5.60;1.85;;;;;;;;;;5064847;28;20410;-79
2021/08/27 12:21:22;;;;;;;3.40;1.80;;;;;;;;;;5068031;28;20025;-79
2021/08/27 12:24:04;;;;;;;3.90;1.60;;;;;;;;;;5068398;28;20094;-78
2021/08/27 12:26:32;;;;;;;3.60;1.90;;;;;;;;;;5062118;28;20058;-83
2021/08/27 12:28:59;;;;;;;3.05;1.70;;;;;;;;;;5060881;28;20107;-82
2021/08/27 12:31:37;;;;;;;3.42;1.25;;;;;;;;;;5061045;28;20029;-82
2021/08/27 12:34:04;;;;;;;2.60;1.55;;;;;;;;;;5060218;28;20033;-79
2021/08/27 12:36:37;;;;;;;3.47;1.55;;;;;;;;;;5061520;28;20029;-79
2021/08/27 12:39:05;;;;;;;3.97;1.37;;;;;;;;;;5064836;28;20052;-78
2021/08/27 12:41:30;;;;;;;3.10;1.50;;;;;;;;;;5065686;28;20323;-78
2021/08/27 12:44:10;;;;;;;5.53;2.80;;;;;;;;;;5062864;28;20087;-79
2021/08/27 12:46:35;;;;;;;4.95;2.72;;;;;;;;;;5062632;28;20029;-83
2021/08/27 12:49:17;;;;;;;5.47;2.90;;;;;;;;;;5060781;28;20080;-82
2021/08/27 12:51:51;;;;;;;3.30;1.90;;;;;;;;;;5060651;28;20021;-80
2021/08/27 12:54:17;;;;;;;3.35;1.55;;;;;;;;;;5059334;28;20021;-81
2021/08/27 12:57:07;;;;;;;6.10;2.80;;;;;;;;;;5061926;28;20056;-78
2021/08/27 12:59:33;;;;;;;5.20;3.20;;;;;;;;;;5061772;28;20447;-82
2021/08/27 13:02:01;;;;;;;3.45;1.60;;;;;;;;;;5061447;28;20040;-80
2021/08/27 13:04:53;;;;;;;4.78;2.03;;;;;;;;;;5061912;28;20035;-82
2021/08/27 13:07:31;;;;;;;3.17;1.50;;;;;;;;;;5060105;28;20048;-83
2021/08/27 13:10:11;;;;;;;4.65;1.67;;;;;;;;;;5060933;28;20021;-83
2021/08/27 13:12:37;;;;;;;3.33;1.50;;;;;;;;;;5060634;28;20115;-81
2021/08/27 13:15:14;;;;;;;3.25;1.65;;;;;;;;;;5060333;28;20435;-82
2021/08/27 13:17:39;;;;;;;3.25;1.88;;;;;;;;;;5062265;28;20451;-81
2021/08/27 13:20:05;;;;;;;4.90;1.88;;;;;;;;;;5060836;28;20087;-85
2021/08/27 13:22:30;;;;;;;6.80;1.70;;;;;;;;;;5060474;28;20025;-82
2021/08/27 13:25:11;;;;;;;3.90;1.80;;;;;;;;;;5060798;28;20086;-80
2021/08/27 13:27:43;;;;;;;4.05;1.40;;;;;;;;;;5059877;28;20116;-84
2021/08/27 13:30:14;;;;;;;6.15;1.60;;;;;;;;;;5060407;28;20112;-80
2021/08/27 13:32:53;;;;;;;5.70;1.67;;;;;;;;;;5058689;28;20040;-86
2021/08/27 13:35:21;;;;;;;4.95;2.60;;;;;;;;;;5057343;28;20405;-81
2021/08/27 13:37:47;;;;;;;3.78;1.70;;;;;;;;;;5058276;28;20112;-85
2021/08/27 13:40:15;;;;;;;3.30;1.80;;;;;;;;;;5057562;28;20078;-82
2021/08/27 13:42:41;;;;;;;3.75;1.88;;;;;;;;;;5058930;28;20057;-81
2021/08/27 13:45:07;;;;;;;7.90;1.67;;;;;;;;;;5058051;28;20036;-81
2021/08/27 13:47:33;;;;;;;2.75;1.60;;;;;;;;;;5057590;28;20025;-85
2021/08/27 13:49:59;;;;;;;5.47;1.85;;;;;;;;;;5058107;28;20447;-80
2021/08/27 13:52:24;;;;;;;3.83;1.63;;;;;;;;;;5057559;28;20033;-81
2021/08/27 13:54:52;;;;;;;5.23;2.10;;;;;;;;;;5056669;28;20039;-79
2021/08/27 13:57:18;;;;;;;3.50;1.50;;;;;;;;;;5056588;28;20397;-82
2021/08/27 13:59:43;;;;;;;5.43;1.90;;;;;;;;;;5058259;28;20029;-79
2021/08/27 14:02:12;;;;;;;4.97;1.90;;;;;;;;;;5057935;28;20094;-84
2021/08/27 14:04:39;;;;;;;2.83;1.42;;;;;;;;;;5057761;28;20108;-82
2021/08/27 14:07:04;;;;;;;;;;;;;;;;;;5058365;28;20040;-79
2021/08/27 14:09:30;;;;;;;4.80;1.40;;;;;;;;;;5059237;28;20273;-80
2021/08/27 14:11:55;;;;;;;4.73;1.63;;;;;;;;;;5060140;28;20442;-83
2021/08/27 14:14:21;;;;;;;5.70;1.23;;;;;;;;;;5060975;28;20017;-83
2021/08/27 14:16:46;;;;;;;3.07;1.83;;;;;;;;;;5063562;28;20380;-79
2021/08/27 14:19:11;;;;;;;2.87;1.60;;;;;;;;;;5064803;28;20056;-79
2021/08/27 14:21:36;;;;;;;5.53;1.87;;;;;;;;;;5061877;28;20064;-82
2021/08/27 14:24:02;;;;;;;5.77;1.80;;;;;;;;;;5058100;28;20029;-82
2021/08/27 14:26:27;;;;;;;4.50;1.37;;;;;;;;;;5058501;28;20042;-85
2021/08/27 14:28:53;;;;;;;2.30;1.40;;;;;;;;;;5059075;28;20025;-81
2021/08/27 14:31:18;;;;;;;3.60;1.53;;;;;;;;;;5058727;28;20040;-82
2021/08/27 14:33:54;;;;;;;3.80;1.67;;;;;;;;;;5059742;28;20021;-86
2021/08/27 14:36:19;;;;;;;;;;;;;;;;;;5060119;28;20047;-81
2021/08/27 14:38:45;;;;;;;;;;;;;;;;;;5058277;28;20341;-80
2021/08/27 14:41:10;;;;;;;3.97;1.87;;;;;;;;;;5056202;28;19912;-78
2021/08/27 14:43:35;;;;;;;3.67;1.90;;;;;;;;;;5058059;28;20048;-85
2021/08/27 14:46:01;;;;;;;11.03;8.50;;;;;;;;;;5057878;28;20122;-84
2021/08/27 14:48:26;;;;;;;2.77;1.50;;;;;;;;;;5059588;28;20029;-82
2021/08/27 14:50:51;;;;;;;2.97;1.37;;;;;;;;;;5065125;28;20029;-80
2021/08/27 14:53:18;;;;;;;4.17;1.90;;;;;;;;;;5063412;28;20423;-80